sensor_id;sensor_type;location;lat;lon;timestamp;temperature;humidity
70246;SHT30;57637;49.272;8.590;2024-02-26T00:00:32;7.74;74.54
70246;SHT30;57637;49.272;8.590;2024-02-26T00:02:59;7.74;74.75
70246;SHT30;57637;49.272;8.590;2024-02-26T00:05:25;7.73;74.60
70246;SHT30;57637;49.272;8.590;2024-02-26T00:07:50;7.73;74.81
70246;SHT30;57637;49.272;8.590;2024-02-26T00:10:15;7.71;74.61
70246;SHT30;57637;49.272;8.590;2024-02-26T00:12:41;7.73;74.41
70246;SHT30;57637;49.272;8.590;2024-02-26T00:15:06;7.78;74.23
70246;SHT30;57637;49.272;8.590;2024-02-26T00:17:32;7.78;74.18
70246;SHT30;57637;49.272;8.590;2024-02-26T00:19:58;7.80;74.12
70246;SHT30;57637;49.272;8.590;2024-02-26T00:22:23;7.84;74.00
70246;SHT30;57637;49.272;8.590;2024-02-26T00:24:48;7.90;73.60
70246;SHT30;57637;49.272;8.590;2024-02-26T00:27:14;7.93;73.52
70246;SHT30;57637;49.272;8.590;2024-02-26T00:29:39;7.91;73.62
70246;SHT30;57637;49.272;8.590;2024-02-26T00:32:04;7.98;73.22
70246;SHT30;57637;49.272;8.590;2024-02-26T00:34:30;7.94;73.40
70246;SHT30;57637;49.272;8.590;2024-02-26T00:36:55;7.97;73.74
70246;SHT30;57637;49.272;8.590;2024-02-26T00:39:21;7.94;73.74
70246;SHT30;57637;49.272;8.590;2024-02-26T00:41:46;7.95;73.65
70246;SHT30;57637;49.272;8.590;2024-02-26T00:44:12;7.94;73.72
70246;SHT30;57637;49.272;8.590;2024-02-26T00:46:37;7.97;73.72
70246;SHT30;57637;49.272;8.590;2024-02-26T00:49:03;8.01;73.55
70246;SHT30;57637;49.272;8.590;2024-02-26T00:51:28;8.05;73.42
70246;SHT30;57637;49.272;8.590;2024-02-26T00:53:54;8.05;73.38
70246;SHT30;57637;49.272;8.590;2024-02-26T00:56:21;8.06;73.40
70246;SHT30;57637;49.272;8.590;2024-02-26T00:58:46;8.05;73.46
70246;SHT30;57637;49.272;8.590;2024-02-26T01:01:11;8.06;73.32
70246;SHT30;57637;49.272;8.590;2024-02-26T01:03:37;8.08;73.42
70246;SHT30;57637;49.272;8.590;2024-02-26T01:06:02;8.04;73.56
70246;SHT30;57637;49.272;8.590;2024-02-26T01:08:28;8.04;73.55
70246;SHT30;57637;49.272;8.590;2024-02-26T01:10:53;8.02;73.68
70246;SHT30;57637;49.272;8.590;2024-02-26T01:13:18;8.02;73.79
70246;SHT30;57637;49.272;8.590;2024-02-26T01:15:44;7.98;73.92
70246;SHT30;57637;49.272;8.590;2024-02-26T01:18:09;7.98;73.87
70246;SHT30;57637;49.272;8.590;2024-02-26T01:20:34;7.97;74.04
70246;SHT30;57637;49.272;8.590;2024-02-26T01:23:00;7.97;74.13
70246;SHT30;57637;49.272;8.590;2024-02-26T01:25:25;7.94;74.23
70246;SHT30;57637;49.272;8.590;2024-02-26T01:27:50;7.94;74.32
70246;SHT30;57637;49.272;8.590;2024-02-26T01:30:15;7.94;74.47
70246;SHT30;57637;49.272;8.590;2024-02-26T01:32:42;7.94;74.66
70246;SHT30;57637;49.272;8.590;2024-02-26T01:35:07;7.97;75.34
70246;SHT30;57637;49.272;8.590;2024-02-26T01:37:35;7.95;75.85
70246;SHT30;57637;49.272;8.590;2024-02-26T01:40:01;7.91;76.43
70246;SHT30;57637;49.272;8.590;2024-02-26T01:42:29;7.94;76.25
70246;SHT30;57637;49.272;8.590;2024-02-26T01:44:54;7.91;76.77
70246;SHT30;57637;49.272;8.590;2024-02-26T01:47:20;7.93;77.26
70246;SHT30;57637;49.272;8.590;2024-02-26T01:49:45;7.97;77.29
70246;SHT30;57637;49.272;8.590;2024-02-26T01:52:10;7.94;77.35
70246;SHT30;57637;49.272;8.590;2024-02-26T01:54:36;7.94;77.29
70246;SHT30;57637;49.272;8.590;2024-02-26T01:57:03;7.93;77.53
70246;SHT30;57637;49.272;8.590;2024-02-26T01:59:30;7.91;77.69
70246;SHT30;57637;49.272;8.590;2024-02-26T02:01:57;7.91;77.84
70246;SHT30;57637;49.272;8.590;2024-02-26T02:04:24;7.90;78.71
70246;SHT30;57637;49.272;8.590;2024-02-26T02:06:50;7.88;79.09
70246;SHT30;57637;49.272;8.590;2024-02-26T02:09:17;7.87;78.55
70246;SHT30;57637;49.272;8.590;2024-02-26T02:11:43;7.81;78.83
70246;SHT30;57637;49.272;8.590;2024-02-26T02:14:09;7.83;79.17
70246;SHT30;57637;49.272;8.590;2024-02-26T02:16:34;7.85;79.19
70246;SHT30;57637;49.272;8.590;2024-02-26T02:18:59;7.88;79.74
70246;SHT30;57637;49.272;8.590;2024-02-26T02:21:25;7.83;80.07
70246;SHT30;57637;49.272;8.590;2024-02-26T02:23:50;7.84;79.69
70246;SHT30;57637;49.272;8.590;2024-02-26T02:26:15;7.88;79.67
70246;SHT30;57637;49.272;8.590;2024-02-26T02:28:41;7.88;79.65
70246;SHT30;57637;49.272;8.590;2024-02-26T02:31:06;7.93;79.95
70246;SHT30;57637;49.272;8.590;2024-02-26T02:33:33;7.97;80.33
70246;SHT30;57637;49.272;8.590;2024-02-26T02:35:59;7.94;80.64
70246;SHT30;57637;49.272;8.590;2024-02-26T02:38:24;7.94;81.19
70246;SHT30;57637;49.272;8.590;2024-02-26T02:40:53;7.91;81.56
70246;SHT30;57637;49.272;8.590;2024-02-26T02:43:19;7.93;81.79
70246;SHT30;57637;49.272;8.590;2024-02-26T02:45:44;7.93;81.93
70246;SHT30;57637;49.272;8.590;2024-02-26T02:48:10;7.90;82.10
70246;SHT30;57637;49.272;8.590;2024-02-26T02:50:36;7.91;82.28
70246;SHT30;57637;49.272;8.590;2024-02-26T02:53:01;7.88;82.40
70246;SHT30;57637;49.272;8.590;2024-02-26T02:55:27;7.85;82.59
70246;SHT30;57637;49.272;8.590;2024-02-26T02:57:52;7.85;82.80
70246;SHT30;57637;49.272;8.590;2024-02-26T03:00:17;7.85;82.93
70246;SHT30;57637;49.272;8.590;2024-02-26T03:02:43;7.87;83.06
70246;SHT30;57637;49.272;8.590;2024-02-26T03:05:10;7.84;83.08
70246;SHT30;57637;49.272;8.590;2024-02-26T03:07:35;7.87;83.15
70246;SHT30;57637;49.272;8.590;2024-02-26T03:10:00;7.85;83.08
70246;SHT30;57637;49.272;8.590;2024-02-26T03:12:26;7.84;83.29
70246;SHT30;57637;49.272;8.590;2024-02-26T03:14:52;7.85;83.29
70246;SHT30;57637;49.272;8.590;2024-02-26T03:17:19;7.85;83.43
70246;SHT30;57637;49.272;8.590;2024-02-26T03:19:45;7.85;83.69
70246;SHT30;57637;49.272;8.590;2024-02-26T03:22:12;7.83;84.05
70246;SHT30;57637;49.272;8.590;2024-02-26T03:24:37;7.78;84.84
70246;SHT30;57637;49.272;8.590;2024-02-26T03:27:03;7.75;84.92
70246;SHT30;57637;49.272;8.590;2024-02-26T03:29:30;7.75;85.20
70246;SHT30;57637;49.272;8.590;2024-02-26T03:31:55;7.73;85.32
70246;SHT30;57637;49.272;8.590;2024-02-26T03:34:21;7.67;86.36
70246;SHT30;57637;49.272;8.590;2024-02-26T03:36:46;7.63;86.41
70246;SHT30;57637;49.272;8.590;2024-02-26T03:39:12;7.57;86.91
70246;SHT30;57637;49.272;8.590;2024-02-26T03:41:37;7.54;87.10
70246;SHT30;57637;49.272;8.590;2024-02-26T03:44:02;7.50;87.10
70246;SHT30;57637;49.272;8.590;2024-02-26T03:46:28;7.43;87.37
70246;SHT30;57637;49.272;8.590;2024-02-26T03:48:53;7.44;87.30
70246;SHT30;57637;49.272;8.590;2024-02-26T03:51:19;7.39;88.08
70246;SHT30;57637;49.272;8.590;2024-02-26T03:53:44;7.34;88.46
70246;SHT30;57637;49.272;8.590;2024-02-26T03:56:11;7.32;88.46
70246;SHT30;57637;49.272;8.590;2024-02-26T03:58:36;7.24;88.80
70246;SHT30;57637;49.272;8.590;2024-02-26T04:01:02;7.24;89.09
70246;SHT30;57637;49.272;8.590;2024-02-26T04:03:27;7.19;89.37
70246;SHT30;57637;49.272;8.590;2024-02-26T04:05:53;7.20;89.29
70246;SHT30;57637;49.272;8.590;2024-02-26T04:08:18;7.19;89.29
70246;SHT30;57637;49.272;8.590;2024-02-26T04:10:43;7.18;89.47
70246;SHT30;57637;49.272;8.590;2024-02-26T04:13:09;7.23;89.41
70246;SHT30;57637;49.272;8.590;2024-02-26T04:15:34;7.20;88.85
70246;SHT30;57637;49.272;8.590;2024-02-26T04:17:59;7.23;88.81
70246;SHT30;57637;49.272;8.590;2024-02-26T04:20:25;7.27;88.67
70246;SHT30;57637;49.272;8.590;2024-02-26T04:22:50;7.27;88.81
70246;SHT30;57637;49.272;8.590;2024-02-26T04:25:15;7.27;88.60
70246;SHT30;57637;49.272;8.590;2024-02-26T04:27:40;7.23;89.20
70246;SHT30;57637;49.272;8.590;2024-02-26T04:30:06;7.16;89.66
70246;SHT30;57637;49.272;8.590;2024-02-26T04:32:32;7.16;89.91
70246;SHT30;57637;49.272;8.590;2024-02-26T04:34:59;7.12;89.94
70246;SHT30;57637;49.272;8.590;2024-02-26T04:37:24;7.12;89.89
70246;SHT30;57637;49.272;8.590;2024-02-26T04:39:50;7.16;89.70
70246;SHT30;57637;49.272;8.590;2024-02-26T04:42:15;7.18;88.98
70246;SHT30;57637;49.272;8.590;2024-02-26T04:44:40;7.19;89.07
70246;SHT30;57637;49.272;8.590;2024-02-26T04:47:05;7.23;88.87
70246;SHT30;57637;49.272;8.590;2024-02-26T04:49:32;7.24;88.83
70246;SHT30;57637;49.272;8.590;2024-02-26T04:51:59;7.24;88.96
70246;SHT30;57637;49.272;8.590;2024-02-26T04:54:24;7.27;88.82
70246;SHT30;57637;49.272;8.590;2024-02-26T04:56:49;7.27;88.78
70246;SHT30;57637;49.272;8.590;2024-02-26T04:59:15;7.27;89.21
70246;SHT30;57637;49.272;8.590;2024-02-26T05:01:40;7.27;89.71
70246;SHT30;57637;49.272;8.590;2024-02-26T05:04:06;7.23;90.10
70246;SHT30;57637;49.272;8.590;2024-02-26T05:06:31;7.18;90.29
70246;SHT30;57637;49.272;8.590;2024-02-26T05:08:57;7.18;90.55
70246;SHT30;57637;49.272;8.590;2024-02-26T05:11:22;7.13;90.63
70246;SHT30;57637;49.272;8.590;2024-02-26T05:13:47;7.05;90.51
70246;SHT30;57637;49.272;8.590;2024-02-26T05:16:13;6.98;90.62
70246;SHT30;57637;49.272;8.590;2024-02-26T05:18:38;6.95;90.41
70246;SHT30;57637;49.272;8.590;2024-02-26T05:21:04;6.91;90.60
70246;SHT30;57637;49.272;8.590;2024-02-26T05:23:29;6.84;90.54
70246;SHT30;57637;49.272;8.590;2024-02-26T05:25:55;6.79;90.62
70246;SHT30;57637;49.272;8.590;2024-02-26T05:28:20;6.77;90.69
70246;SHT30;57637;49.272;8.590;2024-02-26T05:30:45;6.72;90.62
70246;SHT30;57637;49.272;8.590;2024-02-26T05:33:11;6.69;90.87
70246;SHT30;57637;49.272;8.590;2024-02-26T05:35:36;6.67;90.79
70246;SHT30;57637;49.272;8.590;2024-02-26T05:38:02;6.71;90.99
70246;SHT30;57637;49.272;8.590;2024-02-26T05:40:28;6.72;90.89
70246;SHT30;57637;49.272;8.590;2024-02-26T05:42:55;6.69;90.85
70246;SHT30;57637;49.272;8.590;2024-02-26T05:45:20;6.68;90.99
70246;SHT30;57637;49.272;8.590;2024-02-26T05:47:46;6.67;91.01
70246;SHT30;57637;49.272;8.590;2024-02-26T05:50:12;6.65;91.14
70246;SHT30;57637;49.272;8.590;2024-02-26T05:52:38;6.69;91.21
70246;SHT30;57637;49.272;8.590;2024-02-26T05:55:04;6.72;91.22
70246;SHT30;57637;49.272;8.590;2024-02-26T05:57:30;6.75;91.41
70246;SHT30;57637;49.272;8.590;2024-02-26T05:59:56;6.75;91.63
70246;SHT30;57637;49.272;8.590;2024-02-26T06:02:21;6.84;91.61
70246;SHT30;57637;49.272;8.590;2024-02-26T06:04:46;6.96;91.59
70246;SHT30;57637;49.272;8.590;2024-02-26T06:07:12;7.09;91.85
70246;SHT30;57637;49.272;8.590;2024-02-26T06:09:37;6.99;91.73
70246;SHT30;57637;49.272;8.590;2024-02-26T06:12:03;7.05;91.85
70246;SHT30;57637;49.272;8.590;2024-02-26T06:14:28;7.13;91.17
70246;SHT30;57637;49.272;8.590;2024-02-26T06:16:53;7.03;91.34
70246;SHT30;57637;49.272;8.590;2024-02-26T06:19:19;7.01;91.49
70246;SHT30;57637;49.272;8.590;2024-02-26T06:21:44;6.93;91.79
70246;SHT30;57637;49.272;8.590;2024-02-26T06:24:09;6.88;91.96
70246;SHT30;57637;49.272;8.590;2024-02-26T06:26:35;6.82;92.07
70246;SHT30;57637;49.272;8.590;2024-02-26T06:29:00;6.78;92.11
70246;SHT30;57637;49.272;8.590;2024-02-26T06:31:25;6.77;92.18
70246;SHT30;57637;49.272;8.590;2024-02-26T06:33:52;6.77;92.16
70246;SHT30;57637;49.272;8.590;2024-02-26T06:36:18;6.79;92.31
70246;SHT30;57637;49.272;8.590;2024-02-26T06:38:43;6.79;92.41
70246;SHT30;57637;49.272;8.590;2024-02-26T06:41:09;6.72;92.41
70246;SHT30;57637;49.272;8.590;2024-02-26T06:43:34;6.77;92.41
70246;SHT30;57637;49.272;8.590;2024-02-26T06:46:00;6.78;92.53
70246;SHT30;57637;49.272;8.590;2024-02-26T06:48:25;6.79;92.65
70246;SHT30;57637;49.272;8.590;2024-02-26T06:50:50;6.79;92.78
70246;SHT30;57637;49.272;8.590;2024-02-26T06:53:16;6.75;92.63
70246;SHT30;57637;49.272;8.590;2024-02-26T06:55:41;6.75;92.87
70246;SHT30;57637;49.272;8.590;2024-02-26T06:58:07;6.68;92.83
70246;SHT30;57637;49.272;8.590;2024-02-26T07:00:33;6.74;93.07
70246;SHT30;57637;49.272;8.590;2024-02-26T07:02:59;6.75;93.07
70246;SHT30;57637;49.272;8.590;2024-02-26T07:05:24;6.78;92.99
70246;SHT30;57637;49.272;8.590;2024-02-26T07:07:50;6.79;93.05
70246;SHT30;57637;49.272;8.590;2024-02-26T07:10:15;6.75;93.07
70246;SHT30;57637;49.272;8.590;2024-02-26T07:12:40;6.79;93.10
70246;SHT30;57637;49.272;8.590;2024-02-26T07:15:06;6.78;93.11
70246;SHT30;57637;49.272;8.590;2024-02-26T07:17:33;6.85;93.20
70246;SHT30;57637;49.272;8.590;2024-02-26T07:19:59;6.84;93.08
70246;SHT30;57637;49.272;8.590;2024-02-26T07:22:25;6.92;93.09
70246;SHT30;57637;49.272;8.590;2024-02-26T07:24:50;6.95;93.01
70246;SHT30;57637;49.272;8.590;2024-02-26T07:27:16;6.99;93.07
70246;SHT30;57637;49.272;8.590;2024-02-26T07:29:42;6.98;92.76
70246;SHT30;57637;49.272;8.590;2024-02-26T07:32:08;7.02;92.86
70246;SHT30;57637;49.272;8.590;2024-02-26T07:34:33;7.01;92.60
70246;SHT30;57637;49.272;8.590;2024-02-26T07:36:59;7.06;92.26
70246;SHT30;57637;49.272;8.590;2024-02-26T07:39:24;7.09;92.02
70246;SHT30;57637;49.272;8.590;2024-02-26T07:41:49;7.10;91.86
70246;SHT30;57637;49.272;8.590;2024-02-26T07:44:17;7.18;92.06
70246;SHT30;57637;49.272;8.590;2024-02-26T07:46:43;7.18;91.87
70246;SHT30;57637;49.272;8.590;2024-02-26T07:49:08;7.12;92.32
70246;SHT30;57637;49.272;8.590;2024-02-26T07:51:34;7.18;92.46
70246;SHT30;57637;49.272;8.590;2024-02-26T07:54:00;7.12;92.08
70246;SHT30;57637;49.272;8.590;2024-02-26T07:56:25;7.16;91.82
70246;SHT30;57637;49.272;8.590;2024-02-26T07:58:51;7.15;91.31
70246;SHT30;57637;49.272;8.590;2024-02-26T08:01:16;7.20;91.17
70246;SHT30;57637;49.272;8.590;2024-02-26T08:03:42;7.30;91.38
70246;SHT30;57637;49.272;8.590;2024-02-26T08:06:08;7.32;91.26
70246;SHT30;57637;49.272;8.590;2024-02-26T08:08:33;7.43;91.49
70246;SHT30;57637;49.272;8.590;2024-02-26T08:10:59;7.46;91.45
70246;SHT30;57637;49.272;8.590;2024-02-26T08:13:24;7.43;91.02
70246;SHT30;57637;49.272;8.590;2024-02-26T08:15:51;7.40;90.95
70246;SHT30;57637;49.272;8.590;2024-02-26T08:18:16;7.52;91.37
70246;SHT30;57637;49.272;8.590;2024-02-26T08:20:41;7.63;91.36
70246;SHT30;57637;49.272;8.590;2024-02-26T08:23:07;7.59;91.48
70246;SHT30;57637;49.272;8.590;2024-02-26T08:25:32;7.63;91.40
70246;SHT30;57637;49.272;8.590;2024-02-26T08:27:57;7.70;91.80
70246;SHT30;57637;49.272;8.590;2024-02-26T08:30:23;7.63;91.96
70246;SHT30;57637;49.272;8.590;2024-02-26T08:32:48;7.52;91.82
70246;SHT30;57637;49.272;8.590;2024-02-26T08:35:14;7.57;91.85
70246;SHT30;57637;49.272;8.590;2024-02-26T08:37:39;7.57;91.85
70246;SHT30;57637;49.272;8.590;2024-02-26T08:40:06;7.60;91.70
70246;SHT30;57637;49.272;8.590;2024-02-26T08:42:31;7.56;91.59
70246;SHT30;57637;49.272;8.590;2024-02-26T08:44:57;7.60;91.53
70246;SHT30;57637;49.272;8.590;2024-02-26T08:47:25;7.67;91.48
70246;SHT30;57637;49.272;8.590;2024-02-26T08:49:50;7.71;91.33
70246;SHT30;57637;49.272;8.590;2024-02-26T08:52:16;7.75;91.15
70246;SHT30;57637;49.272;8.590;2024-02-26T08:54:41;7.71;90.92
70246;SHT30;57637;49.272;8.590;2024-02-26T08:57:06;7.94;90.90
70246;SHT30;57637;49.272;8.590;2024-02-26T08:59:32;7.95;90.79
70246;SHT30;57637;49.272;8.590;2024-02-26T09:01:57;7.99;90.53
70246;SHT30;57637;49.272;8.590;2024-02-26T09:04:23;8.20;90.53
70246;SHT30;57637;49.272;8.590;2024-02-26T09:06:48;8.22;90.05
70246;SHT30;57637;49.272;8.590;2024-02-26T09:09:14;8.42;89.82
70246;SHT30;57637;49.272;8.590;2024-02-26T09:11:39;8.41;89.68
70246;SHT30;57637;49.272;8.590;2024-02-26T09:14:04;8.36;89.28
70246;SHT30;57637;49.272;8.590;2024-02-26T09:16:30;8.39;89.14
70246;SHT30;57637;49.272;8.590;2024-02-26T09:18:56;8.48;89.19
70246;SHT30;57637;49.272;8.590;2024-02-26T09:21:22;8.57;89.33
70246;SHT30;57637;49.272;8.590;2024-02-26T09:23:52;8.65;89.43
70246;SHT30;57637;49.272;8.590;2024-02-26T09:26:17;8.69;89.46
70246;SHT30;57637;49.272;8.590;2024-02-26T09:28:43;8.55;88.81
70246;SHT30;57637;49.272;8.590;2024-02-26T09:31:09;8.59;89.41
70246;SHT30;57637;49.272;8.590;2024-02-26T09:33:34;8.60;88.88
70246;SHT30;57637;49.272;8.590;2024-02-26T09:36:00;8.76;89.01
70246;SHT30;57637;49.272;8.590;2024-02-26T09:38:25;8.66;88.81
70246;SHT30;57637;49.272;8.590;2024-02-26T09:40:51;8.60;89.08
70246;SHT30;57637;49.272;8.590;2024-02-26T09:43:17;8.72;89.27
70246;SHT30;57637;49.272;8.590;2024-02-26T09:45:47;8.67;88.78
70246;SHT30;57637;49.272;8.590;2024-02-26T09:48:12;8.77;88.71
70246;SHT30;57637;49.272;8.590;2024-02-26T09:50:40;8.94;88.68
70246;SHT30;57637;49.272;8.590;2024-02-26T09:53:08;8.93;88.23
70246;SHT30;57637;49.272;8.590;2024-02-26T09:55:35;8.65;88.16
70246;SHT30;57637;49.272;8.590;2024-02-26T09:58:00;8.77;88.38
70246;SHT30;57637;49.272;8.590;2024-02-26T10:00:30;9.00;88.40
70246;SHT30;57637;49.272;8.590;2024-02-26T10:02:59;9.08;87.51
70246;SHT30;57637;49.272;8.590;2024-02-26T10:05:30;9.03;87.00
70246;SHT30;57637;49.272;8.590;2024-02-26T10:07:56;9.20;86.49
70246;SHT30;57637;49.272;8.590;2024-02-26T10:10:23;9.16;86.47
70246;SHT30;57637;49.272;8.590;2024-02-26T10:12:49;9.18;86.62
70246;SHT30;57637;49.272;8.590;2024-02-26T10:15:14;9.07;87.26
70246;SHT30;57637;49.272;8.590;2024-02-26T10:17:40;9.17;86.58
70246;SHT30;57637;49.272;8.590;2024-02-26T10:20:16;9.20;86.14
70246;SHT30;57637;49.272;8.590;2024-02-26T10:22:43;9.32;87.01
70246;SHT30;57637;49.272;8.590;2024-02-26T10:25:09;9.62;86.64
70246;SHT30;57637;49.272;8.590;2024-02-26T10:27:34;9.52;85.08
70246;SHT30;57637;49.272;8.590;2024-02-26T10:30:04;9.37;85.51
70246;SHT30;57637;49.272;8.590;2024-02-26T10:32:40;9.37;84.92
70246;SHT30;57637;49.272;8.590;2024-02-26T10:35:08;9.40;85.38
70246;SHT30;57637;49.272;8.590;2024-02-26T10:37:34;9.48;85.59
70246;SHT30;57637;49.272;8.590;2024-02-26T10:39:59;9.50;84.89
70246;SHT30;57637;49.272;8.590;2024-02-26T10:42:25;9.61;85.37
70246;SHT30;57637;49.272;8.590;2024-02-26T10:44:51;9.51;84.67
70246;SHT30;57637;49.272;8.590;2024-02-26T10:47:16;9.74;84.62
70246;SHT30;57637;49.272;8.590;2024-02-26T10:49:44;9.82;84.57
70246;SHT30;57637;49.272;8.590;2024-02-26T10:52:11;9.99;84.54
70246;SHT30;57637;49.272;8.590;2024-02-26T10:54:38;10.06;84.22
70246;SHT30;57637;49.272;8.590;2024-02-26T10:57:06;10.06;83.25
70246;SHT30;57637;49.272;8.590;2024-02-26T10:59:33;10.26;83.50
70246;SHT30;57637;49.272;8.590;2024-02-26T11:02:00;10.53;82.80
70246;SHT30;57637;49.272;8.590;2024-02-26T11:04:25;10.32;82.22
70246;SHT30;57637;49.272;8.590;2024-02-26T11:06:53;10.43;81.75
70246;SHT30;57637;49.272;8.590;2024-02-26T11:09:21;10.39;81.93
70246;SHT30;57637;49.272;8.590;2024-02-26T11:11:48;10.39;81.67
70246;SHT30;57637;49.272;8.590;2024-02-26T11:14:15;10.67;82.25
70246;SHT30;57637;49.272;8.590;2024-02-26T11:16:40;10.80;82.24
70246;SHT30;57637;49.272;8.590;2024-02-26T11:19:08;10.80;81.34
70246;SHT30;57637;49.272;8.590;2024-02-26T11:21:35;11.01;81.07
70246;SHT30;57637;49.272;8.590;2024-02-26T11:24:15;11.22;80.23
70246;SHT30;57637;49.272;8.590;2024-02-26T11:27:04;11.15;79.36
70246;SHT30;57637;49.272;8.590;2024-02-26T11:29:34;11.08;79.45
70246;SHT30;57637;49.272;8.590;2024-02-26T11:32:04;10.98;80.16
70246;SHT30;57637;49.272;8.590;2024-02-26T11:34:31;11.21;79.17
70246;SHT30;57637;49.272;8.590;2024-02-26T11:36:57;11.46;79.02
70246;SHT30;57637;49.272;8.590;2024-02-26T11:39:23;11.38;77.52
70246;SHT30;57637;49.272;8.590;2024-02-26T11:41:49;11.52;78.28
70246;SHT30;57637;49.272;8.590;2024-02-26T11:44:15;11.36;78.05
70246;SHT30;57637;49.272;8.590;2024-02-26T11:46:54;11.42;78.03
70246;SHT30;57637;49.272;8.590;2024-02-26T11:51:54;11.40;77.32
70246;SHT30;57637;49.272;8.590;2024-02-26T11:57:04;11.93;76.73
70246;SHT30;57637;49.272;8.590;2024-02-26T11:59:39;11.87;76.18
70246;SHT30;57637;49.272;8.590;2024-02-26T12:02:05;11.77;76.08
70246;SHT30;57637;49.272;8.590;2024-02-26T12:04:32;12.12;75.54
70246;SHT30;57637;49.272;8.590;2024-02-26T12:06:58;12.27;74.71
70246;SHT30;57637;49.272;8.590;2024-02-26T12:12:03;12.37;74.60
70246;SHT30;57637;49.272;8.590;2024-02-26T12:14:32;12.23;74.71
70246;SHT30;57637;49.272;8.590;2024-02-26T12:16:58;12.48;75.10
70246;SHT30;57637;49.272;8.590;2024-02-26T12:19:23;13.12;72.68
70246;SHT30;57637;49.272;8.590;2024-02-26T12:21:52;13.06;72.59
70246;SHT30;57637;49.272;8.590;2024-02-26T12:24:20;13.03;72.94
70246;SHT30;57637;49.272;8.590;2024-02-26T12:26:46;12.68;72.82
70246;SHT30;57637;49.272;8.590;2024-02-26T12:29:12;12.85;73.52
70246;SHT30;57637;49.272;8.590;2024-02-26T12:31:39;13.27;72.24
70246;SHT30;57637;49.272;8.590;2024-02-26T12:34:07;12.91;72.63
70246;SHT30;57637;49.272;8.590;2024-02-26T12:36:34;12.84;72.53
70246;SHT30;57637;49.272;8.590;2024-02-26T12:39:00;13.05;71.50
70246;SHT30;57637;49.272;8.590;2024-02-26T12:41:29;13.11;71.45
70246;SHT30;57637;49.272;8.590;2024-02-26T12:43:55;12.91;71.62
70246;SHT30;57637;49.272;8.590;2024-02-26T12:46:21;13.12;71.77
70246;SHT30;57637;49.272;8.590;2024-02-26T12:48:47;12.95;72.99
70246;SHT30;57637;49.272;8.590;2024-02-26T12:51:12;13.18;73.01
70246;SHT30;57637;49.272;8.590;2024-02-26T12:53:40;13.16;72.36
70246;SHT30;57637;49.272;8.590;2024-02-26T12:56:07;13.18;72.55
70246;SHT30;57637;49.272;8.590;2024-02-26T12:58:35;12.93;72.03
70246;SHT30;57637;49.272;8.590;2024-02-26T13:01:03;12.98;71.93
70246;SHT30;57637;49.272;8.590;2024-02-26T13:03:29;13.13;72.45
70246;SHT30;57637;49.272;8.590;2024-02-26T13:05:55;12.98;72.35
70246;SHT30;57637;49.272;8.590;2024-02-26T13:08:21;12.82;72.70
70246;SHT30;57637;49.272;8.590;2024-02-26T13:10:46;12.87;72.43
70246;SHT30;57637;49.272;8.590;2024-02-26T13:13:15;12.85;72.50
70246;SHT30;57637;49.272;8.590;2024-02-26T13:15:42;12.91;72.91
70246;SHT30;57637;49.272;8.590;2024-02-26T13:18:09;12.69;72.98
70246;SHT30;57637;49.272;8.590;2024-02-26T13:20:35;12.74;73.55
70246;SHT30;57637;49.272;8.590;2024-02-26T13:23:05;12.91;73.19
70246;SHT30;57637;49.272;8.590;2024-02-26T13:25:31;12.78;71.32
70246;SHT30;57637;49.272;8.590;2024-02-26T13:28:05;12.95;71.93
70246;SHT30;57637;49.272;8.590;2024-02-26T13:30:35;13.33;70.40
70246;SHT30;57637;49.272;8.590;2024-02-26T13:33:10;13.59;69.91
70246;SHT30;57637;49.272;8.590;2024-02-26T13:35:37;13.38;70.29
70246;SHT30;57637;49.272;8.590;2024-02-26T13:38:04;13.49;69.67
70246;SHT30;57637;49.272;8.590;2024-02-26T13:40:30;12.99;69.06
70246;SHT30;57637;49.272;8.590;2024-02-26T13:42:56;13.35;69.37
70246;SHT30;57637;49.272;8.590;2024-02-26T13:45:21;13.54;68.79
70246;SHT30;57637;49.272;8.590;2024-02-26T13:47:46;13.32;67.61
70246;SHT30;57637;49.272;8.590;2024-02-26T13:50:11;13.23;68.22
70246;SHT30;57637;49.272;8.590;2024-02-26T13:52:37;13.38;67.72
70246;SHT30;57637;49.272;8.590;2024-02-26T13:55:02;13.46;67.48
70246;SHT30;57637;49.272;8.590;2024-02-26T13:57:28;13.56;66.44
70246;SHT30;57637;49.272;8.590;2024-02-26T13:59:54;13.50;66.59
70246;SHT30;57637;49.272;8.590;2024-02-26T14:02:20;13.36;65.54
70246;SHT30;57637;49.272;8.590;2024-02-26T14:04:45;13.30;65.44
70246;SHT30;57637;49.272;8.590;2024-02-26T14:07:11;13.27;65.54
70246;SHT30;57637;49.272;8.590;2024-02-26T14:09:37;13.46;65.77
70246;SHT30;57637;49.272;8.590;2024-02-26T14:12:03;13.52;64.43
70246;SHT30;57637;49.272;8.590;2024-02-26T14:14:29;13.66;65.75
70246;SHT30;57637;49.272;8.590;2024-02-26T14:16:58;13.70;65.71
70246;SHT30;57637;49.272;8.590;2024-02-26T14:19:23;13.73;64.24
70246;SHT30;57637;49.272;8.590;2024-02-26T14:21:49;13.52;64.19
70246;SHT30;57637;49.272;8.590;2024-02-26T14:24:14;14.08;63.78
70246;SHT30;57637;49.272;8.590;2024-02-26T14:26:40;14.03;63.43
70246;SHT30;57637;49.272;8.590;2024-02-26T14:29:05;13.91;63.73
70246;SHT30;57637;49.272;8.590;2024-02-26T14:31:31;13.75;64.80
70246;SHT30;57637;49.272;8.590;2024-02-26T14:33:57;13.84;65.50
70246;SHT30;57637;49.272;8.590;2024-02-26T14:36:22;13.74;66.05
70246;SHT30;57637;49.272;8.590;2024-02-26T14:38:48;13.84;66.49
70246;SHT30;57637;49.272;8.590;2024-02-26T14:41:14;13.88;65.42
70246;SHT30;57637;49.272;8.590;2024-02-26T14:43:39;13.81;65.10
70246;SHT30;57637;49.272;8.590;2024-02-26T14:46:04;13.91;65.48
70246;SHT30;57637;49.272;8.590;2024-02-26T14:48:30;13.87;66.14
70246;SHT30;57637;49.272;8.590;2024-02-26T14:50:56;13.77;65.42
70246;SHT30;57637;49.272;8.590;2024-02-26T14:53:22;13.81;65.91
70246;SHT30;57637;49.272;8.590;2024-02-26T14:55:47;13.88;66.29
70246;SHT30;57637;49.272;8.590;2024-02-26T14:58:13;13.91;66.47
70246;SHT30;57637;49.272;8.590;2024-02-26T15:00:38;13.73;66.19
70246;SHT30;57637;49.272;8.590;2024-02-26T15:03:04;13.98;66.33
70246;SHT30;57637;49.272;8.590;2024-02-26T15:05:31;13.87;65.84
70246;SHT30;57637;49.272;8.590;2024-02-26T15:07:56;14.00;65.37
70246;SHT30;57637;49.272;8.590;2024-02-26T15:10:22;14.03;65.59
70246;SHT30;57637;49.272;8.590;2024-02-26T15:12:47;13.91;65.67
70246;SHT30;57637;49.272;8.590;2024-02-26T15:15:12;13.71;64.89
70246;SHT30;57637;49.272;8.590;2024-02-26T15:17:38;13.73;64.69
70246;SHT30;57637;49.272;8.590;2024-02-26T15:20:03;13.78;64.97
70246;SHT30;57637;49.272;8.590;2024-02-26T15:22:32;13.81;65.08
70246;SHT30;57637;49.272;8.590;2024-02-26T15:24:58;13.83;65.38
70246;SHT30;57637;49.272;8.590;2024-02-26T15:27:23;13.77;65.31
70246;SHT30;57637;49.272;8.590;2024-02-26T15:29:49;13.91;65.32
70246;SHT30;57637;49.272;8.590;2024-02-26T15:32:21;13.90;65.74
70246;SHT30;57637;49.272;8.590;2024-02-26T15:34:46;13.87;65.58
70246;SHT30;57637;49.272;8.590;2024-02-26T15:37:11;13.87;65.95
70246;SHT30;57637;49.272;8.590;2024-02-26T15:39:37;13.84;65.51
70246;SHT30;57637;49.272;8.590;2024-02-26T15:42:02;13.81;65.27